sensor_id;sensor_type;location;lat;lon;timestamp;temperature;humidity
11320;DHT22;5715;48.234;14.320;2023-08-01T00:00:47;17.00;99.90
11320;DHT22;5715;48.234;14.320;2023-08-01T00:03:35;17.00;99.90
11320;DHT22;5715;48.234;14.320;2023-08-01T00:06:22;17.00;99.90
11320;DHT22;5715;48.234;14.320;2023-08-01T00:09:11;17.00;99.90
11320;DHT22;5715;48.234;14.320;2023-08-01T00:11:59;17.00;99.90
11320;DHT22;5715;48.234;14.320;2023-08-01T00:14:46;17.00;99.90
11320;DHT22;5715;48.234;14.320;2023-08-01T00:17:34;17.00;99.90
11320;DHT22;5715;48.234;14.320;2023-08-01T00:20:22;17.10;99.90
11320;DHT22;5715;48.234;14.320;2023-08-01T00:23:10;17.10;99.90
11320;DHT22;5715;48.234;14.320;2023-08-01T00:25:59;17.10;99.90
11320;DHT22;5715;48.234;14.320;2023-08-01T00:28:46;17.20;99.90
11320;DHT22;5715;48.234;14.320;2023-08-01T00:31:34;17.20;99.90
11320;DHT22;5715;48.234;14.320;2023-08-01T00:34:21;17.20;99.90
11320;DHT22;5715;48.234;14.320;2023-08-01T00:37:09;17.20;99.90
11320;DHT22;5715;48.234;14.320;2023-08-01T00:39:57;17.20;99.90
11320;DHT22;5715;48.234;14.320;2023-08-01T00:42:44;17.20;99.90
11320;DHT22;5715;48.234;14.320;2023-08-01T00:45:32;17.20;99.90
11320;DHT22;5715;48.234;14.320;2023-08-01T00:48:19;17.20;99.90
11320;DHT22;5715;48.234;14.320;2023-08-01T00:51:08;17.30;99.90
11320;DHT22;5715;48.234;14.320;2023-08-01T00:53:57;17.30;99.90
11320;DHT22;5715;48.234;14.320;2023-08-01T00:56:46;17.30;99.90
11320;DHT22;5715;48.234;14.320;2023-08-01T00:59:33;17.50;99.90
11320;DHT22;5715;48.234;14.320;2023-08-01T01:02:22;17.40;99.90
11320;DHT22;5715;48.234;14.320;2023-08-01T01:05:10;17.40;99.90
11320;DHT22;5715;48.234;14.320;2023-08-01T01:07:58;17.50;99.90
11320;DHT22;5715;48.234;14.320;2023-08-01T01:10:45;17.50;99.90
11320;DHT22;5715;48.234;14.320;2023-08-01T01:13:34;17.40;99.90
11320;DHT22;5715;48.234;14.320;2023-08-01T01:16:21;17.40;99.90
11320;DHT22;5715;48.234;14.320;2023-08-01T01:19:09;17.30;99.90
11320;DHT22;5715;48.234;14.320;2023-08-01T01:22:00;17.30;99.90
11320;DHT22;5715;48.234;14.320;2023-08-01T01:24:53;17.30;99.90
11320;DHT22;5715;48.234;14.320;2023-08-01T01:27:43;17.30;99.90
11320;DHT22;5715;48.234;14.320;2023-08-01T01:30:33;17.30;99.90
11320;DHT22;5715;48.234;14.320;2023-08-01T01:33:22;17.30;99.90
11320;DHT22;5715;48.234;14.320;2023-08-01T01:36:10;17.20;99.90
11320;DHT22;5715;48.234;14.320;2023-08-01T01:38:58;17.10;99.90
11320;DHT22;5715;48.234;14.320;2023-08-01T01:41:46;17.10;99.90
11320;DHT22;5715;48.234;14.320;2023-08-01T01:44:33;17.10;99.90
11320;DHT22;5715;48.234;14.320;2023-08-01T01:47:21;17.10;99.90
11320;DHT22;5715;48.234;14.320;2023-08-01T01:50:09;17.20;99.90
11320;DHT22;5715;48.234;14.320;2023-08-01T01:52:57;17.20;99.90
11320;DHT22;5715;48.234;14.320;2023-08-01T01:55:44;17.30;99.90
11320;DHT22;5715;48.234;14.320;2023-08-01T01:58:32;17.30;99.90
11320;DHT22;5715;48.234;14.320;2023-08-01T02:01:19;17.40;99.90
11320;DHT22;5715;48.234;14.320;2023-08-01T02:04:07;17.40;99.90
11320;DHT22;5715;48.234;14.320;2023-08-01T02:06:54;17.40;99.90
11320;DHT22;5715;48.234;14.320;2023-08-01T02:09:42;17.40;99.90
11320;DHT22;5715;48.234;14.320;2023-08-01T02:12:29;17.40;99.90
11320;DHT22;5715;48.234;14.320;2023-08-01T02:15:18;17.40;99.90
11320;DHT22;5715;48.234;14.320;2023-08-01T02:18:06;17.40;99.90
11320;DHT22;5715;48.234;14.320;2023-08-01T02:20:53;17.30;99.90
11320;DHT22;5715;48.234;14.320;2023-08-01T02:23:41;17.30;99.90
11320;DHT22;5715;48.234;14.320;2023-08-01T02:26:29;17.30;99.90
11320;DHT22;5715;48.234;14.320;2023-08-01T02:29:16;17.30;99.90
11320;DHT22;5715;48.234;14.320;2023-08-01T02:32:04;17.30;99.90
11320;DHT22;5715;48.234;14.320;2023-08-01T02:34:52;17.30;99.90
11320;DHT22;5715;48.234;14.320;2023-08-01T02:37:40;17.30;99.90
11320;DHT22;5715;48.234;14.320;2023-08-01T02:40:27;17.40;99.90
11320;DHT22;5715;48.234;14.320;2023-08-01T02:43:15;17.30;99.90
11320;DHT22;5715;48.234;14.320;2023-08-01T02:46:02;17.30;99.90
11320;DHT22;5715;48.234;14.320;2023-08-01T02:48:50;17.30;99.90
11320;DHT22;5715;48.234;14.320;2023-08-01T02:51:38;17.30;99.90
11320;DHT22;5715;48.234;14.320;2023-08-01T02:54:25;17.30;99.90
11320;DHT22;5715;48.234;14.320;2023-08-01T02:57:13;17.30;99.90
11320;DHT22;5715;48.234;14.320;2023-08-01T03:00:00;17.30;99.90
11320;DHT22;5715;48.234;14.320;2023-08-01T03:02:52;17.30;99.90
11320;DHT22;5715;48.234;14.320;2023-08-01T03:05:40;17.30;99.90
11320;DHT22;5715;48.234;14.320;2023-08-01T03:08:27;17.30;99.90
11320;DHT22;5715;48.234;14.320;2023-08-01T03:11:15;17.30;99.90
11320;DHT22;5715;48.234;14.320;2023-08-01T03:14:02;17.30;99.90
11320;DHT22;5715;48.234;14.320;2023-08-01T03:16:51;17.30;99.90
11320;DHT22;5715;48.234;14.320;2023-08-01T03:19:40;17.50;99.90
11320;DHT22;5715;48.234;14.320;2023-08-01T03:22:28;17.20;99.90
11320;DHT22;5715;48.234;14.320;2023-08-01T03:25:16;17.20;99.90
11320;DHT22;5715;48.234;14.320;2023-08-01T03:28:04;17.30;99.90
11320;DHT22;5715;48.234;14.320;2023-08-01T03:30:53;17.30;99.90
11320;DHT22;5715;48.234;14.320;2023-08-01T03:33:41;17.30;99.90
11320;DHT22;5715;48.234;14.320;2023-08-01T03:36:28;17.30;99.90
11320;DHT22;5715;48.234;14.320;2023-08-01T03:39:16;17.40;99.90
11320;DHT22;5715;48.234;14.320;2023-08-01T03:42:03;17.40;99.90
11320;DHT22;5715;48.234;14.320;2023-08-01T03:44:51;17.40;99.90
11320;DHT22;5715;48.234;14.320;2023-08-01T03:47:39;17.30;99.90
11320;DHT22;5715;48.234;14.320;2023-08-01T03:50:26;17.40;99.90
11320;DHT22;5715;48.234;14.320;2023-08-01T03:53:14;17.40;99.90
11320;DHT22;5715;48.234;14.320;2023-08-01T03:56:01;17.40;99.90
11320;DHT22;5715;48.234;14.320;2023-08-01T03:58:49;17.40;99.90
11320;DHT22;5715;48.234;14.320;2023-08-01T04:01:37;17.40;99.90
11320;DHT22;5715;48.234;14.320;2023-08-01T04:04:24;17.40;99.90
11320;DHT22;5715;48.234;14.320;2023-08-01T04:07:12;17.40;99.90
11320;DHT22;5715;48.234;14.320;2023-08-01T04:09:59;17.50;99.90
11320;DHT22;5715;48.234;14.320;2023-08-01T04:12:47;17.60;99.90
11320;DHT22;5715;48.234;14.320;2023-08-01T04:15:35;17.50;99.90
11320;DHT22;5715;48.234;14.320;2023-08-01T04:18:22;17.50;99.90
11320;DHT22;5715;48.234;14.320;2023-08-01T04:21:11;17.50;99.90
11320;DHT22;5715;48.234;14.320;2023-08-01T04:24:01;17.50;99.90
11320;DHT22;5715;48.234;14.320;2023-08-01T04:26:49;17.50;99.90
11320;DHT22;5715;48.234;14.320;2023-08-01T04:29:36;17.60;99.90
11320;DHT22;5715;48.234;14.320;2023-08-01T04:32:23;17.60;99.90
11320;DHT22;5715;48.234;14.320;2023-08-01T04:35:11;17.60;99.90
11320;DHT22;5715;48.234;14.320;2023-08-01T04:37:59;17.60;99.90
11320;DHT22;5715;48.234;14.320;2023-08-01T04:40:46;17.70;99.90
11320;DHT22;5715;48.234;14.320;2023-08-01T04:43:34;17.70;99.90
11320;DHT22;5715;48.234;14.320;2023-08-01T04:46:21;17.80;99.90
11320;DHT22;5715;48.234;14.320;2023-08-01T04:49:09;17.80;99.90
11320;DHT22;5715;48.234;14.320;2023-08-01T04:51:56;17.90;99.90
11320;DHT22;5715;48.234;14.320;2023-08-01T04:54:44;17.90;99.90
11320;DHT22;5715;48.234;14.320;2023-08-01T04:57:31;17.80;99.90
11320;DHT22;5715;48.234;14.320;2023-08-01T05:00:19;17.80;99.90
11320;DHT22;5715;48.234;14.320;2023-08-01T05:03:07;17.90;99.90
11320;DHT22;5715;48.234;14.320;2023-08-01T05:05:54;17.80;99.90
11320;DHT22;5715;48.234;14.320;2023-08-01T05:08:42;17.80;99.90
11320;DHT22;5715;48.234;14.320;2023-08-01T05:11:29;17.80;99.90
11320;DHT22;5715;48.234;14.320;2023-08-01T05:14:17;17.90;99.90
11320;DHT22;5715;48.234;14.320;2023-08-01T05:17:04;17.90;99.90
11320;DHT22;5715;48.234;14.320;2023-08-01T05:19:52;18.00;99.90
11320;DHT22;5715;48.234;14.320;2023-08-01T05:22:40;18.00;99.90
11320;DHT22;5715;48.234;14.320;2023-08-01T05:25:27;17.90;99.90
11320;DHT22;5715;48.234;14.320;2023-08-01T05:28:15;18.00;99.90
11320;DHT22;5715;48.234;14.320;2023-08-01T05:31:03;17.90;99.90
11320;DHT22;5715;48.234;14.320;2023-08-01T05:33:50;17.90;99.90
11320;DHT22;5715;48.234;14.320;2023-08-01T05:36:38;17.90;99.90
11320;DHT22;5715;48.234;14.320;2023-08-01T05:39:26;18.00;99.90
11320;DHT22;5715;48.234;14.320;2023-08-01T05:42:14;18.00;99.90
11320;DHT22;5715;48.234;14.320;2023-08-01T05:45:01;17.90;99.90
11320;DHT22;5715;48.234;14.320;2023-08-01T05:47:49;17.90;99.90
11320;DHT22;5715;48.234;14.320;2023-08-01T05:50:36;17.90;99.90
11320;DHT22;5715;48.234;14.320;2023-08-01T05:53:24;17.90;99.90
11320;DHT22;5715;48.234;14.320;2023-08-01T05:56:13;18.00;99.90
11320;DHT22;5715;48.234;14.320;2023-08-01T05:59:01;18.00;99.90
11320;DHT22;5715;48.234;14.320;2023-08-01T06:01:49;18.00;99.90
11320;DHT22;5715;48.234;14.320;2023-08-01T06:04:36;18.00;99.90
11320;DHT22;5715;48.234;14.320;2023-08-01T06:07:26;18.00;99.90
11320;DHT22;5715;48.234;14.320;2023-08-01T06:10:13;18.00;99.90
11320;DHT22;5715;48.234;14.320;2023-08-01T06:13:01;18.10;99.90
11320;DHT22;5715;48.234;14.320;2023-08-01T06:15:49;18.20;99.90
11320;DHT22;5715;48.234;14.320;2023-08-01T06:18:36;18.20;99.90
11320;DHT22;5715;48.234;14.320;2023-08-01T06:21:24;18.30;99.90
11320;DHT22;5715;48.234;14.320;2023-08-01T06:24:11;18.30;99.90
11320;DHT22;5715;48.234;14.320;2023-08-01T06:26:59;18.20;99.90
11320;DHT22;5715;48.234;14.320;2023-08-01T06:29:47;18.20;99.90
11320;DHT22;5715;48.234;14.320;2023-08-01T06:32:34;18.00;99.90
11320;DHT22;5715;48.234;14.320;2023-08-01T06:35:22;17.90;99.90
11320;DHT22;5715;48.234;14.320;2023-08-01T06:38:10;17.90;99.90
11320;DHT22;5715;48.234;14.320;2023-08-01T06:40:57;18.00;99.90
11320;DHT22;5715;48.234;14.320;2023-08-01T06:43:45;18.10;99.90
11320;DHT22;5715;48.234;14.320;2023-08-01T06:46:32;18.20;99.90
11320;DHT22;5715;48.234;14.320;2023-08-01T06:49:20;18.20;99.90
11320;DHT22;5715;48.234;14.320;2023-08-01T06:52:08;18.20;99.90
11320;DHT22;5715;48.234;14.320;2023-08-01T06:54:56;18.20;99.90
11320;DHT22;5715;48.234;14.320;2023-08-01T06:57:43;18.20;99.90
11320;DHT22;5715;48.234;14.320;2023-08-01T07:00:31;18.30;99.90
11320;DHT22;5715;48.234;14.320;2023-08-01T07:03:18;18.30;99.90
11320;DHT22;5715;48.234;14.320;2023-08-01T07:06:06;18.40;99.90
11320;DHT22;5715;48.234;14.320;2023-08-01T07:08:54;18.30;99.90
11320;DHT22;5715;48.234;14.320;2023-08-01T07:11:41;18.40;99.90
11320;DHT22;5715;48.234;14.320;2023-08-01T07:14:29;18.40;99.90
11320;DHT22;5715;48.234;14.320;2023-08-01T07:17:17;18.50;99.90
11320;DHT22;5715;48.234;14.320;2023-08-01T07:20:05;18.50;99.90
11320;DHT22;5715;48.234;14.320;2023-08-01T07:22:52;18.50;99.90
11320;DHT22;5715;48.234;14.320;2023-08-01T07:25:40;18.50;99.90
11320;DHT22;5715;48.234;14.320;2023-08-01T07:28:28;18.40;99.90
11320;DHT22;5715;48.234;14.320;2023-08-01T07:31:15;18.40;99.90
11320;DHT22;5715;48.234;14.320;2023-08-01T07:34:03;18.40;99.90
11320;DHT22;5715;48.234;14.320;2023-08-01T07:36:51;18.50;99.90
11320;DHT22;5715;48.234;14.320;2023-08-01T07:39:38;18.50;99.90
11320;DHT22;5715;48.234;14.320;2023-08-01T07:42:26;18.50;99.90
11320;DHT22;5715;48.234;14.320;2023-08-01T07:45:13;18.50;99.90
11320;DHT22;5715;48.234;14.320;2023-08-01T07:48:01;18.50;99.90
11320;DHT22;5715;48.234;14.320;2023-08-01T07:50:49;18.50;99.90
11320;DHT22;5715;48.234;14.320;2023-08-01T07:53:36;18.50;99.90
11320;DHT22;5715;48.234;14.320;2023-08-01T07:56:24;18.40;99.90
11320;DHT22;5715;48.234;14.320;2023-08-01T07:59:12;18.50;99.90
11320;DHT22;5715;48.234;14.320;2023-08-01T08:01:59;18.50;99.90
11320;DHT22;5715;48.234;14.320;2023-08-01T08:04:47;18.40;99.90
11320;DHT22;5715;48.234;14.320;2023-08-01T08:07:36;18.40;99.90
11320;DHT22;5715;48.234;14.320;2023-08-01T08:10:24;18.40;99.90
11320;DHT22;5715;48.234;14.320;2023-08-01T08:13:12;18.30;99.90
11320;DHT22;5715;48.234;14.320;2023-08-01T08:15:59;18.30;99.90
11320;DHT22;5715;48.234;14.320;2023-08-01T08:18:47;18.20;99.90
11320;DHT22;5715;48.234;14.320;2023-08-01T08:21:34;18.30;99.90
11320;DHT22;5715;48.234;14.320;2023-08-01T08:24:22;18.30;99.90
11320;DHT22;5715;48.234;14.320;2023-08-01T08:27:09;18.30;99.90
11320;DHT22;5715;48.234;14.320;2023-08-01T08:29:57;18.30;99.90
11320;DHT22;5715;48.234;14.320;2023-08-01T08:32:45;18.20;99.90
11320;DHT22;5715;48.234;14.320;2023-08-01T08:35:35;18.20;99.90
11320;DHT22;5715;48.234;14.320;2023-08-01T08:38:23;18.20;99.90
11320;DHT22;5715;48.234;14.320;2023-08-01T08:41:14;18.20;99.90
11320;DHT22;5715;48.234;14.320;2023-08-01T08:44:08;18.20;99.90
11320;DHT22;5715;48.234;14.320;2023-08-01T08:47:02;18.20;99.90
11320;DHT22;5715;48.234;14.320;2023-08-01T08:49:55;18.20;99.90
11320;DHT22;5715;48.234;14.320;2023-08-01T08:52:45;18.20;99.90
11320;DHT22;5715;48.234;14.320;2023-08-01T08:55:33;18.10;99.90
11320;DHT22;5715;48.234;14.320;2023-08-01T08:58:22;18.10;99.90
11320;DHT22;5715;48.234;14.320;2023-08-01T09:01:10;18.00;99.90
11320;DHT22;5715;48.234;14.320;2023-08-01T09:03:58;18.00;99.90
11320;DHT22;5715;48.234;14.320;2023-08-01T09:06:49;18.10;99.90
11320;DHT22;5715;48.234;14.320;2023-08-01T09:09:41;18.00;99.90
11320;DHT22;5715;48.234;14.320;2023-08-01T09:12:29;18.00;99.90
11320;DHT22;5715;48.234;14.320;2023-08-01T09:15:25;18.00;99.90
11320;DHT22;5715;48.234;14.320;2023-08-01T09:18:15;18.00;99.90
11320;DHT22;5715;48.234;14.320;2023-08-01T09:21:03;18.00;99.90
11320;DHT22;5715;48.234;14.320;2023-08-01T09:23:51;18.10;99.90
11320;DHT22;5715;48.234;14.320;2023-08-01T09:26:39;18.20;99.90
11320;DHT22;5715;48.234;14.320;2023-08-01T09:29:28;18.40;99.90
11320;DHT22;5715;48.234;14.320;2023-08-01T09:32:16;18.50;99.90
11320;DHT22;5715;48.234;14.320;2023-08-01T09:35:04;18.60;99.90
11320;DHT22;5715;48.234;14.320;2023-08-01T09:37:52;18.70;99.90
11320;DHT22;5715;48.234;14.320;2023-08-01T09:40:39;18.70;99.90
11320;DHT22;5715;48.234;14.320;2023-08-01T09:43:34;18.70;99.90
11320;DHT22;5715;48.234;14.320;2023-08-01T09:46:25;18.70;99.90
11320;DHT22;5715;48.234;14.320;2023-08-01T09:49:13;18.60;99.90
11320;DHT22;5715;48.234;14.320;2023-08-01T09:52:03;18.60;99.90
11320;DHT22;5715;48.234;14.320;2023-08-01T09:54:50;18.60;99.90
11320;DHT22;5715;48.234;14.320;2023-08-01T09:57:40;18.60;99.90
11320;DHT22;5715;48.234;14.320;2023-08-01T10:00:33;18.60;99.90
11320;DHT22;5715;48.234;14.320;2023-08-01T10:03:21;18.50;99.90
11320;DHT22;5715;48.234;14.320;2023-08-01T10:06:10;18.60;99.90
11320;DHT22;5715;48.234;14.320;2023-08-01T10:09:01;18.60;99.90
11320;DHT22;5715;48.234;14.320;2023-08-01T10:11:50;18.60;99.90
11320;DHT22;5715;48.234;14.320;2023-08-01T10:14:39;18.50;99.90
11320;DHT22;5715;48.234;14.320;2023-08-01T10:17:28;18.50;99.90
11320;DHT22;5715;48.234;14.320;2023-08-01T10:20:16;18.50;99.90
11320;DHT22;5715;48.234;14.320;2023-08-01T10:23:07;18.50;99.90
11320;DHT22;5715;48.234;14.320;2023-08-01T10:25:58;18.40;99.90
11320;DHT22;5715;48.234;14.320;2023-08-01T10:28:51;18.50;99.90
11320;DHT22;5715;48.234;14.320;2023-08-01T10:31:54;18.60;99.90
11320;DHT22;5715;48.234;14.320;2023-08-01T10:34:51;18.60;99.90
11320;DHT22;5715;48.234;14.320;2023-08-01T10:37:43;18.80;99.90
11320;DHT22;5715;48.234;14.320;2023-08-01T10:40:40;18.80;99.90
11320;DHT22;5715;48.234;14.320;2023-08-01T10:43:30;18.90;99.90
11320;DHT22;5715;48.234;14.320;2023-08-01T10:46:17;18.90;99.90
11320;DHT22;5715;48.234;14.320;2023-08-01T10:49:05;19.00;99.90
11320;DHT22;5715;48.234;14.320;2023-08-01T10:51:52;19.10;99.90
11320;DHT22;5715;48.234;14.320;2023-08-01T10:54:40;19.10;99.90
11320;DHT22;5715;48.234;14.320;2023-08-01T10:57:30;19.10;99.90
11320;DHT22;5715;48.234;14.320;2023-08-01T11:00:18;19.20;99.90
11320;DHT22;5715;48.234;14.320;2023-08-01T11:03:07;19.20;99.90
11320;DHT22;5715;48.234;14.320;2023-08-01T11:05:58;19.30;99.90
11320;DHT22;5715;48.234;14.320;2023-08-01T11:08:46;19.20;99.90
11320;DHT22;5715;48.234;14.320;2023-08-01T11:11:34;19.30;99.90
11320;DHT22;5715;48.234;14.320;2023-08-01T11:14:23;19.20;99.90
11320;DHT22;5715;48.234;14.320;2023-08-01T11:17:13;19.20;99.90
11320;DHT22;5715;48.234;14.320;2023-08-01T11:20:05;19.10;99.90
11320;DHT22;5715;48.234;14.320;2023-08-01T11:22:59;19.20;99.90
11320;DHT22;5715;48.234;14.320;2023-08-01T11:25:48;19.30;99.90
11320;DHT22;5715;48.234;14.320;2023-08-01T11:28:37;19.40;99.90
11320;DHT22;5715;48.234;14.320;2023-08-01T11:31:25;19.60;99.90
11320;DHT22;5715;48.234;14.320;2023-08-01T11:34:12;19.70;99.90
11320;DHT22;5715;48.234;14.320;2023-08-01T11:37:00;19.80;99.90
11320;DHT22;5715;48.234;14.320;2023-08-01T11:39:48;19.80;99.90
11320;DHT22;5715;48.234;14.320;2023-08-01T11:42:38;19.90;99.90
11320;DHT22;5715;48.234;14.320;2023-08-01T11:45:26;19.90;99.90
11320;DHT22;5715;48.234;14.320;2023-08-01T11:48:14;19.90;99.90
11320;DHT22;5715;48.234;14.320;2023-08-01T11:51:02;19.70;99.90
11320;DHT22;5715;48.234;14.320;2023-08-01T11:54:03;19.80;99.90
11320;DHT22;5715;48.234;14.320;2023-08-01T11:57:00;19.80;99.90
11320;DHT22;5715;48.234;14.320;2023-08-01T11:59:49;19.80;99.90
11320;DHT22;5715;48.234;14.320;2023-08-01T12:02:38;19.80;99.90
11320;DHT22;5715;48.234;14.320;2023-08-01T12:05:26;19.80;99.90
11320;DHT22;5715;48.234;14.320;2023-08-01T12:08:14;19.70;99.90
11320;DHT22;5715;48.234;14.320;2023-08-01T12:11:02;19.70;99.90
11320;DHT22;5715;48.234;14.320;2023-08-01T12:14:13;19.60;99.90
11320;DHT22;5715;48.234;14.320;2023-08-01T12:17:01;19.60;99.90
11320;DHT22;5715;48.234;14.320;2023-08-01T12:19:49;19.50;99.90
11320;DHT22;5715;48.234;14.320;2023-08-01T12:22:37;19.50;99.90
11320;DHT22;5715;48.234;14.320;2023-08-01T12:25:24;19.40;99.90
11320;DHT22;5715;48.234;14.320;2023-08-01T12:28:13;19.40;99.90
11320;DHT22;5715;48.234;14.320;2023-08-01T12:31:02;19.50;99.90
11320;DHT22;5715;48.234;14.320;2023-08-01T12:33:51;19.40;99.90
11320;DHT22;5715;48.234;14.320;2023-08-01T12:36:40;19.40;99.90
11320;DHT22;5715;48.234;14.320;2023-08-01T12:39:28;19.50;99.90
11320;DHT22;5715;48.234;14.320;2023-08-01T12:42:16;19.50;99.90
11320;DHT22;5715;48.234;14.320;2023-08-01T12:45:04;19.40;99.90
11320;DHT22;5715;48.234;14.320;2023-08-01T12:47:51;19.40;99.90
11320;DHT22;5715;48.234;14.320;2023-08-01T12:50:44;19.50;99.90
11320;DHT22;5715;48.234;14.320;2023-08-01T12:53:36;19.50;99.90
11320;DHT22;5715;48.234;14.320;2023-08-01T12:56:26;19.40;99.90
11320;DHT22;5715;48.234;14.320;2023-08-01T12:59:14;19.40;99.90
11320;DHT22;5715;48.234;14.320;2023-08-01T13:02:02;19.40;99.90
11320;DHT22;5715;48.234;14.320;2023-08-01T13:04:55;19.30;99.90
11320;DHT22;5715;48.234;14.320;2023-08-01T13:07:43;19.30;99.90
11320;DHT22;5715;48.234;14.320;2023-08-01T13:10:35;19.20;99.90
11320;DHT22;5715;48.234;14.320;2023-08-01T13:13:24;19.10;99.90
11320;DHT22;5715;48.234;14.320;2023-08-01T13:16:11;19.00;99.90
11320;DHT22;5715;48.234;14.320;2023-08-01T13:18:59;19.00;99.90
11320;DHT22;5715;48.234;14.320;2023-08-01T13:21:46;19.00;99.90
11320;DHT22;5715;48.234;14.320;2023-08-01T13:24:34;18.90;99.90
11320;DHT22;5715;48.234;14.320;2023-08-01T13:27:22;18.90;99.90
11320;DHT22;5715;48.234;14.320;2023-08-01T13:30:10;18.90;99.90
11320;DHT22;5715;48.234;14.320;2023-08-01T13:33:01;18.90;99.90
11320;DHT22;5715;48.234;14.320;2023-08-01T13:35:52;18.90;99.90
11320;DHT22;5715;48.234;14.320;2023-08-01T13:38:40;18.80;99.90
11320;DHT22;5715;48.234;14.320;2023-08-01T13:41:28;18.80;99.90
11320;DHT22;5715;48.234;14.320;2023-08-01T13:44:16;18.80;99.90
11320;DHT22;5715;48.234;14.320;2023-08-01T13:47:03;18.80;99.90
11320;DHT22;5715;48.234;14.320;2023-08-01T13:49:54;18.70;99.90
11320;DHT22;5715;48.234;14.320;2023-08-01T13:52:42;18.70;99.90
11320;DHT22;5715;48.234;14.320;2023-08-01T13:55:29;18.70;99.90
11320;DHT22;5715;48.234;14.320;2023-08-01T13:58:19;18.70;99.90
11320;DHT22;5715;48.234;14.320;2023-08-01T14:01:07;18.70;99.90
11320;DHT22;5715;48.234;14.320;2023-08-01T14:03:56;18.70;99.90
11320;DHT22;5715;48.234;14.320;2023-08-01T14:06:43;18.80;99.90
11320;DHT22;5715;48.234;14.320;2023-08-01T14:09:31;18.80;99.90
11320;DHT22;5715;48.234;14.320;2023-08-01T14:12:19;18.90;99.90
11320;DHT22;5715;48.234;14.320;2023-08-01T14:15:07;18.90;99.90
11320;DHT22;5715;48.234;14.320;2023-08-01T14:17:55;19.00;99.90
11320;DHT22;5715;48.234;14.320;2023-08-01T14:20:43;19.10;99.90
11320;DHT22;5715;48.234;14.320;2023-08-01T14:23:31;19.10;99.90
11320;DHT22;5715;48.234;14.320;2023-08-01T14:26:19;19.20;99.90
11320;DHT22;5715;48.234;14.320;2023-08-01T14:29:06;19.20;99.90
11320;DHT22;5715;48.234;14.320;2023-08-01T14:31:54;19.20;99.90
11320;DHT22;5715;48.234;14.320;2023-08-01T14:34:41;19.40;99.90
11320;DHT22;5715;48.234;14.320;2023-08-01T14:37:29;19.50;99.90
11320;DHT22;5715;48.234;14.320;2023-08-01T14:40:17;19.60;99.90
11320;DHT22;5715;48.234;14.320;2023-08-01T14:43:05;19.70;99.90
11320;DHT22;5715;48.234;14.320;2023-08-01T14:45:53;19.70;99.90
11320;DHT22;5715;48.234;14.320;2023-08-01T14:48:41;19.70;99.90
11320;DHT22;5715;48.234;14.320;2023-08-01T14:51:28;19.70;99.90
11320;DHT22;5715;48.234;14.320;2023-08-01T14:54:16;19.60;99.90
11320;DHT22;5715;48.234;14.320;2023-08-01T14:57:24;19.50;99.90
11320;DHT22;5715;48.234;14.320;2023-08-01T15:00:12;19.40;99.90
11320;DHT22;5715;48.234;14.320;2023-08-01T15:03:00;19.40;99.90
11320;DHT22;5715;48.234;14.320;2023-08-01T15:05:48;19.30;99.90
11320;DHT22;5715;48.234;14.320;2023-08-01T15:08:37;19.20;99.90
11320;DHT22;5715;48.234;14.320;2023-08-01T15:11:26;19.20;99.90
11320;DHT22;5715;48.234;14.320;2023-08-01T15:14:13;19.20;99.90
11320;DHT22;5715;48.234;14.320;2023-08-01T15:17:01;19.30;99.90
11320;DHT22;5715;48.234;14.320;2023-08-01T15:19:49;19.30;99.90
11320;DHT22;5715;48.234;14.320;2023-08-01T15:22:37;19.30;99.90
11320;DHT22;5715;48.234;14.320;2023-08-01T15:25:24;19.30;99.90
11320;DHT22;5715;48.234;14.320;2023-08-01T15:28:12;19.30;99.90
11320;DHT22;5715;48.234;14.320;2023-08-01T15:31:04;19.30;99.90
11320;DHT22;5715;48.234;14.320;2023-08-01T15:33:53;19.30;99.90
11320;DHT22;5715;48.234;14.320;2023-08-01T15:36:46;19.30;99.90
11320;DHT22;5715;48.234;14.320;2023-08-01T15:39:37;19.20;99.90
11320;DHT22;5715;48.234;14.320;2023-08-01T15:42:24;19.10;99.90
11320;DHT22;5715;48.234;14.320;2023-08-01T15:45:12;19.10;99.90
11320;DHT22;5715;48.234;14.320;2023-08-01T15:47:59;19.10;99.90
11320;DHT22;5715;48.234;14.320;2023-08-01T15:50:47;19.10;99.90
11320;DHT22;5715;48.234;14.320;2023-08-01T15:53:35;19.10;99.90
11320;DHT22;5715;48.234;14.320;2023-08-01T15:56:22;19.00;99.90
11320;DHT22;5715;48.234;14.320;2023-08-01T15:59:10;18.90;99.90
11320;DHT22;5715;48.234;14.320;2023-08-01T16:01:58;18.90;99.90
11320;DHT22;5715;48.234;14.320;2023-08-01T16:04:45;18.90;99.90
11320;DHT22;5715;48.234;14.320;2023-08-01T16:07:33;18.90;99.90
11320;DHT22;5715;48.234;14.320;2023-08-01T16:10:21;18.90;99.90
11320;DHT22;5715;48.234;14.320;2023-08-01T16:13:09;19.00;99.90
11320;DHT22;5715;48.234;14.320;2023-08-01T16:15:58;19.10;99.90
11320;DHT22;5715;48.234;14.320;2023-08-01T16:18:47;19.20;99.90
11320;DHT22;5715;48.234;14.320;2023-08-01T16:21:34;19.30;99.90
11320;DHT22;5715;48.234;14.320;2023-08-01T16:24:22;19.40;99.90
11320;DHT22;5715;48.234;14.320;2023-08-01T16:27:10;19.40;99.90
11320;DHT22;5715;48.234;14.320;2023-08-01T16:29:57;19.40;99.90
11320;DHT22;5715;48.234;14.320;2023-08-01T16:32:45;19.40;99.90
11320;DHT22;5715;48.234;14.320;2023-08-01T16:35:38;19.40;99.90
11320;DHT22;5715;48.234;14.320;2023-08-01T16:38:25;19.40;99.90
11320;DHT22;5715;48.234;14.320;2023-08-01T16:41:13;19.60;99.90
11320;DHT22;5715;48.234;14.320;2023-08-01T16:44:01;20.00;99.90
11320;DHT22;5715;48.234;14.320;2023-08-01T16:46:48;20.60;99.90
11320;DHT22;5715;48.234;14.320;2023-08-01T16:49:36;21.10;99.90
11320;DHT22;5715;48.234;14.320;2023-08-01T16:52:24;21.50;99.90
11320;DHT22;5715;48.234;14.320;2023-08-01T16:55:12;21.70;99.90
11320;DHT22;5715;48.234;14.320;2023-08-01T16:58:00;21.80;99.90
11320;DHT22;5715;48.234;14.320;2023-08-01T17:00:50;21.80;99.90
11320;DHT22;5715;48.234;14.320;2023-08-01T17:03:38;21.60;99.90
11320;DHT22;5715;48.234;14.320;2023-08-01T17:06:26;21.60;99.90
11320;DHT22;5715;48.234;14.320;2023-08-01T17:09:13;21.50;99.90
11320;DHT22;5715;48.234;14.320;2023-08-01T17:12:03;21.30;99.90
11320;DHT22;5715;48.234;14.320;2023-08-01T17:14:51;21.10;99.90
11320;DHT22;5715;48.234;14.320;2023-08-01T17:17:38;21.00;99.90
11320;DHT22;5715;48.234;14.320;2023-08-01T17:20:26;20.80;99.90
11320;DHT22;5715;48.234;14.320;2023-08-01T17:23:14;20.60;99.90
11320;DHT22;5715;48.234;14.320;2023-08-01T17:26:02;20.50;99.90
11320;DHT22;5715;48.234;14.320;2023-08-01T17:28:50;20.40;99.90
11320;DHT22;5715;48.234;14.320;2023-08-01T17:31:37;20.30;99.90
11320;DHT22;5715;48.234;14.320;2023-08-01T17:34:25;20.30;99.90
11320;DHT22;5715;48.234;14.320;2023-08-01T17:37:13;20.30;99.90
11320;DHT22;5715;48.234;14.320;2023-08-01T17:40:00;20.40;99.90
11320;DHT22;5715;48.234;14.320;2023-08-01T17:42:48;20.30;99.90